createdAt,value
2022-10-07T00:00:51.349Z,1248.50
2022-10-07T00:03:19.646Z,1246.18
2022-10-07T00:05:46.547Z,1250.13
2022-10-07T00:08:13.767Z,1248.78
2022-10-07T00:10:42.561Z,1246.57
2022-10-07T00:13:11.891Z,1252.38
2022-10-07T00:15:38.596Z,1250.03
2022-10-07T00:18:05.948Z,1252.88
2022-10-07T00:20:38.737Z,1249.73
2022-10-07T00:23:07.729Z,1252.97
2022-10-07T00:25:38.121Z,1255.85
2022-10-07T00:28:05.615Z,1252.47
2022-10-07T00:30:32.645Z,1256.67
2022-10-07T00:32:59.435Z,1256.95
2022-10-07T00:35:26.185Z,1255.20
2022-10-07T00:37:53.278Z,1249.33
2022-10-07T00:40:20.470Z,1254.60
2022-10-07T00:42:47.695Z,1251.68
2022-10-07T00:45:19.179Z,1260.10
2022-10-07T00:47:49.700Z,1255.57
2022-10-07T00:50:21.696Z,1253.38
2022-10-07T00:53:21.434Z,1254.07
2022-10-07T00:55:49.387Z,1254.95
2022-10-07T00:58:16.598Z,1258.95
2022-10-07T01:00:43.450Z,1251.35
2022-10-07T01:03:12.002Z,1252.47
2022-10-07T01:05:38.801Z,1252.25
2022-10-07T01:08:05.634Z,1260.13
2022-10-07T01:11:13.725Z,1252.40
2022-10-07T01:14:02.516Z,1252.83
2022-10-07T01:16:48.876Z,1247.40
2022-10-07T01:19:22.677Z,1250.40
2022-10-07T01:21:52.838Z,1251.47
2022-10-07T01:24:33.511Z,1247.07
2022-10-07T01:27:13.850Z,1250.40
2022-10-07T01:29:55.826Z,1250.93
2022-10-07T01:32:32.051Z,1249.27
2022-10-07T01:35:02.979Z,1250.50
2022-10-07T01:37:37.184Z,1250.22
2022-10-07T01:40:10.290Z,1253.95
2022-10-07T01:42:38.834Z,1252.05
2022-10-07T01:45:10.639Z,1250.03
2022-10-07T01:47:39.376Z,1248.60
2022-10-07T01:50:12.367Z,1249.13
2022-10-07T01:52:51.258Z,1250.70
2022-10-07T01:55:45.565Z,1251.07
2022-10-07T01:58:53.271Z,1255.47
2022-10-07T02:01:30.161Z,1250.30
2022-10-07T02:04:06.097Z,1249.68
2022-10-07T02:06:43.073Z,1245.25
2022-10-07T02:09:29.100Z,1249.63
2022-10-07T02:12:22.878Z,1245.53
2022-10-07T02:15:00.244Z,1246.90
2022-10-07T02:17:28.026Z,1251.80
2022-10-07T02:19:56.433Z,1247.87
2022-10-07T02:22:28.314Z,1246.67
2022-10-07T02:24:58.998Z,1248.07
2022-10-07T02:27:32.725Z,1251.50
2022-10-07T02:30:08.632Z,1248.43
2022-10-07T02:32:39.085Z,1249.13
2022-10-07T02:35:13.775Z,1246.35
2022-10-07T02:37:43.072Z,1249.85
2022-10-07T02:40:12.480Z,1248.33
2022-10-07T02:42:55.470Z,1247.97
2022-10-07T02:45:31.299Z,1249.55
2022-10-07T02:48:04.163Z,1247.40
2022-10-07T02:50:39.827Z,1246.15
2022-10-07T02:53:08.906Z,1248.15
2022-10-07T02:55:36.133Z,1248.30
2022-10-07T02:58:09.151Z,1247.95
2022-10-07T03:00:42.308Z,1247.93
2022-10-07T03:03:09.589Z,1244.38
2022-10-07T03:05:48.247Z,1240.90
2022-10-07T03:08:16.072Z,1242.70
2022-10-07T03:10:43.723Z,1242.78
2022-10-07T03:13:15.366Z,1245.80
2022-10-07T03:15:46.275Z,1240.07
2022-10-07T03:18:28.421Z,1241.88
2022-10-07T03:21:25.071Z,1241.63
2022-10-07T03:23:54.942Z,1242.28
2022-10-07T03:26:26.596Z,1248.82
2022-10-07T03:28:55.174Z,1238.00
2022-10-07T03:31:22.636Z,1239.45
2022-10-07T03:33:53.415Z,1239.25
2022-10-07T03:36:20.695Z,1240.47
2022-10-07T03:38:47.963Z,1242.82
2022-10-07T03:41:15.402Z,1241.90
2022-10-07T03:43:42.600Z,1240.38
2022-10-07T03:46:10.958Z,1238.88
2022-10-07T03:48:39.234Z,1235.93
2022-10-07T03:51:07.804Z,1242.13
2022-10-07T03:53:38.608Z,1240.85
2022-10-07T03:56:06.221Z,1239.35
2022-10-07T03:58:33.872Z,1239.03
2022-10-07T04:01:10.328Z,1244.80
2022-10-07T04:03:41.084Z,1241.45
2022-10-07T04:06:08.348Z,1240.85
2022-10-07T04:08:35.884Z,1238.97
2022-10-07T04:11:04.193Z,1240.28
2022-10-07T04:13:32.649Z,1240.15
2022-10-07T04:16:05.778Z,1241.15
2022-10-07T04:18:33.059Z,1239.35
2022-10-07T04:21:00.512Z,1241.65
2022-10-07T04:23:29.578Z,1245.28
2022-10-07T04:25:56.637Z,1242.53
2022-10-07T04:28:26.229Z,1241.57
2022-10-07T04:31:08.609Z,1246.47
2022-10-07T04:33:40.454Z,1241.00
2022-10-07T04:36:09.284Z,1245.50
2022-10-07T04:38:46.533Z,1244.75
2022-10-07T04:41:13.732Z,1245.32
2022-10-07T04:43:40.909Z,1246.20
2022-10-07T04:46:14.189Z,1240.65
2022-10-07T04:48:46.746Z,1246.15
2022-10-07T04:51:16.025Z,1244.43
2022-10-07T04:53:56.491Z,1244.07
2022-10-07T04:56:28.300Z,1239.72
2022-10-07T04:58:56.782Z,1241.03
2022-10-07T05:01:24.400Z,1242.38
2022-10-07T05:03:52.747Z,1239.50
2022-10-07T05:06:20.353Z,1236.78
2022-10-07T05:08:47.470Z,1239.70
2022-10-07T05:11:14.781Z,1240.35
2022-10-07T05:13:48.801Z,1238.18
2022-10-07T05:16:16.585Z,1242.72
2022-10-07T05:18:43.801Z,1248.88
2022-10-07T05:21:12.901Z,1240.38
2022-10-07T05:23:44.478Z,1241.65
2022-10-07T05:26:15.548Z,1245.10
2022-10-07T05:28:48.578Z,1237.13
2022-10-07T05:31:20.242Z,1240.90
2022-10-07T05:33:52.313Z,1240.72
2022-10-07T05:36:22.160Z,1241.40
2022-10-07T05:38:50.111Z,1236.50
2022-10-07T05:41:17.662Z,1240.65
2022-10-07T05:43:47.212Z,1241.78
2022-10-07T05:46:20.331Z,1239.45
2022-10-07T05:48:52.917Z,1240.53
2022-10-07T05:51:23.413Z,1237.32
2022-10-07T05:53:54.566Z,1240.65
2022-10-07T05:56:22.556Z,1239.65
2022-10-07T05:58:52.237Z,1239.73
2022-10-07T06:01:21.786Z,1243.67
2022-10-07T06:03:49.857Z,1240.05
2022-10-07T06:06:17.355Z,1237.35
2022-10-07T06:08:45.396Z,1234.55
2022-10-07T06:11:33.001Z,1235.22
2022-10-07T06:14:00.498Z,1236.50
2022-10-07T06:16:27.573Z,1235.55
2022-10-07T06:18:56.670Z,1239.82
2022-10-07T06:21:28.068Z,1237.80
2022-10-07T06:24:00.367Z,1235.75
2022-10-07T06:26:33.906Z,1239.53
2022-10-07T06:29:01.778Z,1239.32
2022-10-07T06:31:29.123Z,1233.45
2022-10-07T06:34:01.583Z,1244.10
2022-10-07T06:36:28.927Z,1240.68
2022-10-07T06:38:58.129Z,1241.03
2022-10-07T06:41:31.282Z,1237.65
2022-10-07T06:44:07.916Z,1239.43
2022-10-07T06:46:35.851Z,1235.15
2022-10-07T06:49:04.027Z,1237.05
2022-10-07T06:51:31.291Z,1234.23
2022-10-07T06:53:59.404Z,1251.13
2022-10-07T06:56:27.417Z,1239.68
2022-10-07T06:58:54.787Z,1237.70
2022-10-07T07:01:32.017Z,1234.50
2022-10-07T07:03:59.551Z,1235.30
2022-10-07T07:06:26.857Z,1234.57
2022-10-07T07:08:58.384Z,1230.50
2022-10-07T07:11:40.405Z,1235.90
2022-10-07T07:14:21.775Z,1233.70
2022-10-07T07:16:55.254Z,1238.53
2022-10-07T07:19:24.884Z,1234.80
2022-10-07T07:21:53.178Z,1236.38
2022-10-07T07:24:22.377Z,1232.88
2022-10-07T07:26:49.637Z,1237.97
2022-10-07T07:29:18.048Z,1231.80
2022-10-07T07:31:50.996Z,1230.43
2022-10-07T07:34:21.299Z,1231.55
2022-10-07T07:36:53.409Z,1237.07
2022-10-07T07:39:24.306Z,1247.28
2022-10-07T07:41:57.957Z,1236.73
2022-10-07T07:44:26.554Z,1234.87
2022-10-07T07:46:57.128Z,1234.90
2022-10-07T07:49:25.046Z,1232.00
2022-10-07T07:51:52.750Z,1242.50
2022-10-07T07:54:30.854Z,1238.72
2022-10-07T07:56:58.104Z,1240.18
2022-10-07T07:59:28.867Z,1234.80
2022-10-07T08:01:58.020Z,1241.82
2022-10-07T08:04:25.852Z,1238.93
2022-10-07T08:06:55.449Z,1242.60
2022-10-07T08:09:24.100Z,1240.38
2022-10-07T08:11:51.404Z,1244.47
2022-10-07T08:14:18.692Z,1239.20
2022-10-07T08:16:49.764Z,1247.22
2022-10-07T08:19:17.939Z,1246.57
2022-10-07T08:21:45.310Z,1239.27
2022-10-07T08:24:17.339Z,1232.97
2022-10-07T08:26:45.043Z,1234.78
2022-10-07T08:29:15.173Z,1238.70
2022-10-07T08:31:42.598Z,1236.93
2022-10-07T08:34:10.419Z,1234.57
2022-10-07T08:36:37.919Z,1237.45
2022-10-07T08:39:05.459Z,1236.07
2022-10-07T08:41:33.114Z,1234.97
2022-10-07T08:44:08.144Z,1233.57
2022-10-07T08:46:38.948Z,1237.03
2022-10-07T08:49:10.305Z,1232.55
2022-10-07T08:52:07.023Z,1238.38
2022-10-07T08:54:34.327Z,1235.55
2022-10-07T08:57:27.758Z,1236.03
2022-10-07T08:59:57.966Z,1237.30
2022-10-07T09:02:46.582Z,1240.10
2022-10-07T09:05:19.931Z,1234.57
2022-10-07T09:07:50.651Z,1241.63
2022-10-07T09:10:32.747Z,1235.75
2022-10-07T09:13:00.367Z,1236.28
2022-10-07T09:15:27.795Z,1241.72
2022-10-07T09:17:57.244Z,1245.75
2022-10-07T09:20:28.578Z,1237.53
2022-10-07T09:22:57.493Z,1241.53
2022-10-07T09:25:29.644Z,1236.22
2022-10-07T09:27:56.937Z,1245.22
2022-10-07T09:30:24.762Z,1240.27
2022-10-07T09:32:56.403Z,1239.90
2022-10-07T09:35:25.105Z,1239.60
2022-10-07T09:37:56.559Z,1239.88
2022-10-07T09:40:31.509Z,1238.80
2022-10-07T09:42:59.862Z,1260.68
2022-10-07T09:45:31.298Z,1240.20
2022-10-07T09:48:16.518Z,1238.88
2022-10-07T09:50:44.720Z,1245.25
2022-10-07T09:53:23.046Z,1244.85
2022-10-07T09:55:51.319Z,1240.47
2022-10-07T09:58:29.812Z,1239.13
2022-10-07T10:01:01.418Z,1235.88
2022-10-07T10:03:36.076Z,1236.43
2022-10-07T10:06:04.530Z,1232.55
2022-10-07T10:08:38.526Z,1234.68
2022-10-07T10:11:06.919Z,1232.47
2022-10-07T10:13:40.802Z,1233.03
2022-10-07T10:16:29.699Z,1234.73
2022-10-07T10:18:58.880Z,1239.07
2022-10-07T10:21:29.261Z,1234.43
2022-10-07T10:23:58.198Z,1239.40
2022-10-07T10:26:47.745Z,1241.75
2022-10-07T10:29:15.030Z,1239.30
2022-10-07T10:31:49.005Z,1240.90
2022-10-07T10:34:26.311Z,1240.20
2022-10-07T10:36:55.849Z,1244.45
2022-10-07T10:39:37.442Z,1231.10
2022-10-07T10:42:08.675Z,1236.30
2022-10-07T10:44:42.794Z,1239.05
2022-10-07T10:47:12.879Z,1243.15
2022-10-07T10:49:54.346Z,1242.75
2022-10-07T10:52:45.227Z,1245.28
2022-10-07T10:55:36.644Z,1246.00
2022-10-07T10:58:09.695Z,1242.22
2022-10-07T11:01:03.015Z,1249.18
2022-10-07T11:03:43.036Z,1245.07
2022-10-07T11:06:12.602Z,1248.80
2022-10-07T11:08:39.845Z,1244.75
2022-10-07T11:11:11.157Z,1251.90
2022-10-07T11:13:50.314Z,1248.45
2022-10-07T11:16:20.135Z,1246.30
2022-10-07T11:18:53.036Z,1249.68
2022-10-07T11:21:35.618Z,1244.85
2022-10-07T11:24:05.637Z,1246.50
2022-10-07T11:26:44.787Z,1241.00
2022-10-07T11:29:27.175Z,1243.28
2022-10-07T11:32:14.937Z,1247.77
2022-10-07T11:34:44.689Z,1247.00
2022-10-07T11:37:27.948Z,1246.70
2022-10-07T11:39:55.181Z,1245.78
2022-10-07T11:42:27.253Z,1250.55
2022-10-07T11:45:20.754Z,1247.60
2022-10-07T11:47:51.131Z,1249.38
2022-10-07T11:50:24.262Z,1247.25
2022-10-07T11:52:54.058Z,1254.30
2022-10-07T11:55:25.021Z,1251.07
2022-10-07T11:57:59.870Z,1255.20
2022-10-07T12:00:29.146Z,1262.90
2022-10-07T12:03:14.997Z,1252.97
2022-10-07T12:05:42.339Z,1250.70
2022-10-07T12:08:29.873Z,1249.00
2022-10-07T12:11:17.060Z,1251.35
2022-10-07T12:13:49.567Z,1247.93
2022-10-07T12:16:31.792Z,1243.05
2022-10-07T12:19:07.843Z,1250.93
2022-10-07T12:21:55.445Z,1250.60
2022-10-07T12:24:23.032Z,1252.72
2022-10-07T12:26:50.702Z,1256.30
2022-10-07T12:29:40.639Z,1253.65
2022-10-07T12:32:27.807Z,1252.82
2022-10-07T12:34:55.628Z,1249.22
2022-10-07T12:37:40.771Z,1255.80
2022-10-07T12:40:19.067Z,1254.33
2022-10-07T12:42:50.448Z,1255.50
2022-10-07T12:45:18.330Z,1254.07
2022-10-07T12:47:46.139Z,1258.68
2022-10-07T12:50:15.576Z,1256.10
2022-10-07T12:52:44.467Z,1255.45
2022-10-07T12:55:28.616Z,1257.25
2022-10-07T12:58:19.750Z,1257.95
2022-10-07T13:01:06.775Z,1254.80
2022-10-07T13:04:06.514Z,1262.15
2022-10-07T13:06:36.423Z,1256.43
2022-10-07T13:09:15.975Z,1259.43
2022-10-07T13:11:55.066Z,1260.13
2022-10-07T13:14:31.534Z,1253.72
2022-10-07T13:17:10.735Z,1258.80
2022-10-07T13:19:50.225Z,1256.18
2022-10-07T13:22:18.278Z,1256.78
2022-10-07T13:24:51.009Z,1252.80
2022-10-07T13:27:26.435Z,1249.57
2022-10-07T13:29:54.298Z,1244.32
2022-10-07T13:32:30.085Z,1251.27
2022-10-07T13:34:58.190Z,1246.55
2022-10-07T13:37:29.524Z,1250.20
2022-10-07T13:39:57.686Z,1245.20
2022-10-07T13:42:29.305Z,1247.00
2022-10-07T13:45:03.197Z,1253.18
2022-10-07T13:47:33.800Z,1259.72
2022-10-07T13:50:01.601Z,1258.27
2022-10-07T13:52:32.948Z,1262.97
2022-10-07T13:55:00.101Z,1259.57
2022-10-07T13:57:29.413Z,1257.28
2022-10-07T13:59:56.734Z,1261.15
2022-10-07T14:02:24.030Z,1262.15
2022-10-07T14:04:56.381Z,1264.53
2022-10-07T14:07:23.574Z,1261.00
2022-10-07T14:10:04.684Z,1261.80
2022-10-07T14:12:37.347Z,1263.97
2022-10-07T14:15:13.276Z,1261.67
2022-10-07T14:17:48.034Z,1265.38
2022-10-07T14:20:21.039Z,1263.40
2022-10-07T14:22:53.538Z,1265.53
2022-10-07T14:25:22.153Z,1270.13
2022-10-07T14:28:04.318Z,1266.13
2022-10-07T14:30:55.761Z,1265.13
2022-10-07T14:33:48.260Z,1267.65
2022-10-07T14:36:20.004Z,1264.63
2022-10-07T14:38:48.344Z,1272.57
2022-10-07T14:41:17.364Z,1264.30
2022-10-07T14:43:45.859Z,1264.15
2022-10-07T14:46:23.321Z,1262.68
2022-10-07T14:48:51.355Z,1263.15
2022-10-07T14:51:19.974Z,1263.67
2022-10-07T14:53:49.123Z,1265.93
2022-10-07T14:56:20.339Z,1266.30
2022-10-07T14:58:47.559Z,1261.28
2022-10-07T15:01:14.711Z,1205.07
2022-10-07T15:03:41.955Z,1224.10
2022-10-07T15:06:09.198Z,1239.55
2022-10-07T15:08:36.286Z,1260.82
2022-10-07T15:11:05.536Z,1275.35
2022-10-07T15:13:32.777Z,1282.55
2022-10-07T15:15:59.973Z,1305.28
2022-10-07T15:18:27.180Z,1306.68
2022-10-07T15:20:58.091Z,1259.90
2022-10-07T15:23:26.148Z,1257.67
2022-10-07T15:25:53.285Z,1256.97
2022-10-07T15:28:20.611Z,1251.40
2022-10-07T15:30:47.839Z,1261.15
2022-10-07T15:33:15.368Z,1254.05
2022-10-07T15:35:44.027Z,1255.30
2022-10-07T15:38:11.262Z,1264.05
2022-10-07T15:40:51.324Z,1254.20
2022-10-07T15:43:18.655Z,1253.07
2022-10-07T15:45:45.960Z,1259.57
2022-10-07T15:48:13.306Z,1258.10
2022-10-07T15:50:45.968Z,1260.18
2022-10-07T15:53:14.583Z,1263.13
2022-10-07T15:55:49.729Z,1258.95
2022-10-07T15:58:17.733Z,1259.25
2022-10-07T16:00:45.515Z,1260.25
2022-10-07T16:03:12.739Z,1203.80
2022-10-07T16:05:39.898Z,1221.53
2022-10-07T16:08:07.154Z,1217.57
2022-10-07T16:10:36.967Z,1218.85
2022-10-07T16:13:04.084Z,1211.20
2022-10-07T16:15:31.250Z,1222.05
2022-10-07T16:17:58.398Z,1224.07
2022-10-07T16:20:25.657Z,1239.78
2022-10-07T16:22:52.755Z,1243.63
2022-10-07T16:25:19.900Z,1250.88
2022-10-07T16:28:05.875Z,1249.80
2022-10-07T16:30:42.557Z,1253.90
2022-10-07T16:33:09.852Z,1260.13
2022-10-07T16:35:36.972Z,1260.00
2022-10-07T16:38:04.813Z,1263.88
2022-10-07T16:40:31.990Z,1270.95
2022-10-07T16:43:02.078Z,1265.07
2022-10-07T16:45:29.265Z,1268.83
2022-10-07T16:47:56.787Z,1286.82
2022-10-07T16:50:24.010Z,1250.28
2022-10-07T16:52:51.086Z,1248.28
2022-10-07T16:55:18.277Z,1251.55
2022-10-07T16:57:48.147Z,1285.82
2022-10-07T17:00:15.884Z,1282.55
2022-10-07T17:02:42.990Z,1295.47
2022-10-07T17:05:11.035Z,1308.30
2022-10-07T17:07:38.288Z,1265.70
2022-10-07T17:10:05.749Z,1257.55
2022-10-07T17:12:32.930Z,1253.60
2022-10-07T17:15:03.117Z,1260.38
2022-10-07T17:17:30.370Z,1264.03
2022-10-07T17:19:57.544Z,1263.97
2022-10-07T17:22:24.782Z,1267.97
2022-10-07T17:24:52.317Z,1265.10
2022-10-07T17:27:19.602Z,1255.00
2022-10-07T17:29:46.773Z,1254.65
2022-10-07T17:32:14.415Z,1256.82
2022-10-07T17:34:45.274Z,1258.25
2022-10-07T17:37:12.729Z,1262.90
2022-10-07T17:39:39.950Z,1259.32
2022-10-07T17:42:07.140Z,1265.78
2022-10-07T17:44:34.361Z,1258.07
2022-10-07T17:47:03.707Z,1270.07
2022-10-07T17:49:31.342Z,1271.78
2022-10-07T17:51:58.514Z,1311.93
2022-10-07T17:54:26.894Z,1305.17
2022-10-07T17:56:54.127Z,1329.65
2022-10-07T17:59:21.290Z,1337.80
2022-10-07T18:01:48.506Z,1261.18
2022-10-07T18:04:22.507Z,1261.93
2022-10-07T18:06:51.886Z,1273.00
2022-10-07T18:09:19.383Z,1294.75
2022-10-07T18:12:05.647Z,1306.20
2022-10-07T18:14:54.028Z,1343.33
2022-10-07T18:17:21.998Z,1284.57
2022-10-07T18:19:49.135Z,1278.05
2022-10-07T18:22:16.278Z,1285.10
2022-10-07T18:24:43.542Z,1275.47
2022-10-07T18:27:10.695Z,1276.43
2022-10-07T18:29:38.129Z,1287.45
2022-10-07T18:32:06.215Z,1281.43
2022-10-07T18:34:33.606Z,1264.70
2022-10-07T18:37:01.160Z,1276.10
2022-10-07T18:39:29.532Z,1271.80
2022-10-07T18:41:56.830Z,1276.87
2022-10-07T18:44:24.112Z,1278.37
2022-10-07T18:46:51.427Z,1277.40
2022-10-07T18:49:18.746Z,1278.43
2022-10-07T18:51:47.037Z,1277.70
2022-10-07T18:54:14.251Z,1274.33
2022-10-07T18:56:41.837Z,1271.70
2022-10-07T18:59:09.695Z,1274.10
2022-10-07T19:01:37.383Z,1280.93
2022-10-07T19:04:05.071Z,1275.82
2022-10-07T19:06:33.292Z,1280.00
2022-10-07T19:09:01.800Z,1283.85
2022-10-07T19:11:32.184Z,1286.22
2022-10-07T19:13:59.718Z,1266.13
2022-10-07T19:16:34.827Z,1271.80
2022-10-07T19:19:06.633Z,1266.28
2022-10-07T19:21:34.342Z,1266.05
2022-10-07T19:24:02.186Z,1269.50
2022-10-07T19:26:34.873Z,1274.18
2022-10-07T19:29:02.381Z,1258.77
2022-10-07T19:31:31.773Z,1257.13
2022-10-07T19:34:03.519Z,1257.55
2022-10-07T19:36:31.758Z,1285.25
2022-10-07T19:38:58.983Z,1283.30
2022-10-07T19:41:28.543Z,1279.00
2022-10-07T19:43:56.200Z,1281.57
2022-10-07T19:46:25.125Z,1242.10
2022-10-07T19:48:55.319Z,1257.45
2022-10-07T19:51:23.325Z,1275.85
2022-10-07T19:53:51.254Z,1265.33
2022-10-07T19:56:20.020Z,1270.60
2022-10-07T19:58:48.726Z,1262.15
2022-10-07T20:01:17.014Z,1258.75
2022-10-07T20:03:44.319Z,1263.15
2022-10-07T20:06:11.831Z,1256.45
2022-10-07T20:08:40.683Z,1252.50
2022-10-07T20:11:08.254Z,1231.68
2022-10-07T20:13:36.125Z,1245.15
2022-10-07T20:16:09.578Z,1235.30
2022-10-07T20:18:37.683Z,1267.40
2022-10-07T20:21:08.478Z,1264.47
2022-10-07T20:23:36.290Z,1268.43
2022-10-07T20:26:10.527Z,1287.10
2022-10-07T20:28:38.047Z,1280.47
2022-10-07T20:31:06.158Z,1268.47
2022-10-07T20:33:40.174Z,1315.30
2022-10-07T20:36:08.336Z,1285.90
2022-10-07T20:38:54.630Z,1297.60
2022-10-07T20:41:41.323Z,1264.90
2022-10-07T20:44:09.117Z,1261.65
2022-10-07T20:46:37.907Z,1267.85
2022-10-07T20:49:24.443Z,1274.22
2022-10-07T20:51:54.390Z,1248.28
2022-10-07T20:54:22.733Z,1231.53
2022-10-07T20:56:51.849Z,1232.87
2022-10-07T20:59:19.090Z,1232.57
2022-10-07T21:01:46.511Z,1226.35
2022-10-07T21:04:14.955Z,1236.35
2022-10-07T21:06:42.373Z,1232.43
2022-10-07T21:09:09.890Z,1236.15
2022-10-07T21:11:37.659Z,1237.53
2022-10-07T21:14:04.893Z,1237.05
2022-10-07T21:16:32.650Z,1226.05
2022-10-07T21:19:00.004Z,1230.25
2022-10-07T21:21:27.179Z,1234.53
2022-10-07T21:23:54.524Z,1247.80
2022-10-07T21:26:22.181Z,1220.20
2022-10-07T21:28:49.487Z,1221.57
2022-10-07T21:31:18.345Z,1247.55
2022-10-07T21:33:47.950Z,1209.97
2022-10-07T21:36:19.975Z,1227.57
2022-10-07T21:38:48.274Z,1223.80
2022-10-07T21:41:19.466Z,1271.70
2022-10-07T21:43:50.663Z,1218.72
2022-10-07T21:46:17.943Z,1225.38
2022-10-07T21:48:45.177Z,1223.32
2022-10-07T21:51:12.278Z,1220.70
2022-10-07T21:53:39.755Z,1223.97
2022-10-07T21:56:08.444Z,1221.70
2022-10-07T21:58:35.839Z,1219.60
2022-10-07T22:01:03.715Z,1217.05
2022-10-07T22:03:31.045Z,1215.60
2022-10-07T22:06:02.294Z,1213.07
2022-10-07T22:08:35.463Z,1219.75
2022-10-07T22:11:06.134Z,1212.97
2022-10-07T22:13:34.831Z,1213.72
2022-10-07T22:16:07.154Z,1213.43
2022-10-07T22:18:34.847Z,1214.50
2022-10-07T22:21:11.667Z,1212.80
2022-10-07T22:23:39.147Z,1216.00
2022-10-07T22:26:07.202Z,1215.72
2022-10-07T22:28:37.745Z,1211.70
2022-10-07T22:31:07.743Z,1213.03
2022-10-07T22:33:38.882Z,1215.20
2022-10-07T22:36:07.038Z,1213.25
2022-10-07T22:38:35.050Z,1211.68
2022-10-07T22:41:13.944Z,1214.40
2022-10-07T22:43:44.838Z,1212.38
2022-10-07T22:46:16.489Z,1217.13
2022-10-07T22:48:43.702Z,1212.15
2022-10-07T22:51:12.113Z,1212.53
2022-10-07T22:53:40.664Z,1210.80
2022-10-07T22:56:11.189Z,1215.57
2022-10-07T22:58:39.029Z,1213.80
2022-10-07T23:01:13.519Z,1214.55
2022-10-07T23:03:43.699Z,1214.47
2022-10-07T23:06:12.423Z,1209.72
2022-10-07T23:08:39.841Z,1214.80
2022-10-07T23:11:07.689Z,1217.70
2022-10-07T23:13:37.871Z,1215.22
2022-10-07T23:16:11.160Z,1217.43
2022-10-07T23:18:39.055Z,1218.45
2022-10-07T23:21:07.714Z,1218.65
2022-10-07T23:23:38.399Z,1215.47
2022-10-07T23:26:08.342Z,1215.60
2022-10-07T23:28:35.740Z,1220.45
2022-10-07T23:31:04.792Z,1220.32
2022-10-07T23:33:32.962Z,1216.97
2022-10-07T23:36:00.978Z,1218.07
2022-10-07T23:38:28.518Z,1218.20
2022-10-07T23:40:55.747Z,1217.47
2022-10-07T23:43:23.301Z,1214.68
2022-10-07T23:45:51.021Z,1216.63
2022-10-07T23:48:19.191Z,1219.33
2022-10-07T23:50:53.653Z,1216.50
2022-10-07T23:53:21.435Z,1216.57
2022-10-07T23:55:49.330Z,1217.07
2022-10-07T23:58:17.351Z,1213.55
